EST,Max TemperatureF,Mean TemperatureF,Min TemperatureF,Max Dew PointF,MeanDew PointF,Min DewpointF,Max Humidity, Mean Humidity, Min Humidity, Max Sea Level PressureIn, Mean Sea Level PressureIn, Min Sea Level PressureIn, Max VisibilityMiles, Mean VisibilityMiles, Min VisibilityMiles, Max Wind SpeedMPH, Mean Wind SpeedMPH, Max Gust SpeedMPH,PrecipitationIn, CloudCover, Events, WindDirDegrees
2013-12-1,48,42,35,34,31,27,75,68,57,30.25,30.14,30.00,10,10,10,14,7,18,0.00,4,,218
2013-12-2,50,46,41,45,37,34,100,79,66,30.00,29.88,29.81,10,10,10,7,4,,0.00,8,,205
2013-12-3,55,48,42,50,45,43,100,90,72,29.91,29.87,29.83,10,9,2,10,4,,0.00,6,,177
2013-12-4,62,56,50,52,50,46,100,78,63,30.02,29.96,29.90,10,10,10,17,9,25,0.00,5,,172
2013-12-5,66,62,59,63,57,52,100,85,72,30.07,30.02,29.98,10,10,7,17,13,24,0.04,6,Rain,200
2013-12-6,60,46,32,61,39,32,100,100,100,30.17,30.04,29.96,10,3,0,13,6,17,1.45,8,Fog-Rain-Snow-Thunderstorm,358
2013-12-7,32,30,28,32,30,28,100,100,100,30.40,30.33,30.17,10,1,0,8,6,,0.00,8,Fog-Snow,5
2013-12-8,44,37,30,45,37,30,100,100,100,30.35,30.17,30.04,10,4,0,13,4,22,1.41,8,Fog-Rain-Snow,151
2013-12-9,50,42,35,50,44,36,100,99,76,30.15,30.08,30.02,10,6,0,14,7,20,0.16,8,Fog-Rain,261
2013-12-10,35,28,21,36,28,19,100,92,74,30.28,30.12,29.97,10,6,0,14,6,18,0.24,5,Fog-Rain-Snow,297
2013-12-11,41,31,21,30,22,18,93,74,49,30.35,30.30,30.25,10,10,10,15,6,22,0.00,0,,233
2013-12-12,32,28,23,23,16,7,86,66,35,30.40,30.33,30.28,10,10,10,10,6,16,0.00,4,,292
2013-12-13,42,32,21,23,17,10,74,55,36,30.30,30.24,30.15,10,10,10,9,5,,0.00,1,,216
2013-12-14,44,40,35,45,34,18,100,79,42,30.15,29.92,29.74,10,8,0,15,7,22,0.32,8,Fog-Rain,175
2013-12-15,41,34,28,41,32,28,100,100,100,30.07,29.95,29.76,10,8,0,17,10,23,0.00,7,Fog-Snow,271
2013-12-16,42,35,28,34,31,28,100,90,66,30.13,30.07,30.03,10,10,7,16,11,22,0.00,5,,221
2013-12-17,44,38,32,36,32,23,100,81,66,30.12,30.03,29.92,10,10,7,20,13,26,0.07,6,Rain-Snow,250
2013-12-18,39,31,23,27,22,19,93,71,52,30.23,30.20,30.13,10,10,10,12,8,18,0.00,2,,230
2013-12-19,53,42,32,27,22,19,60,44,30,30.24,30.19,30.12,10,10,10,23,12,30,0.00,0,,225
2013-12-20,57,48,39,48,35,23,82,58,38,30.16,30.11,30.07,10,10,10,16,9,23,0.00,5,,218
2013-12-21,68,60,51,59,52,43,83,74,63,30.07,29.98,29.86,10,10,7,22,12,28,0.02,7,,174
2013-12-22,66,60,51,63,55,50,100,97,73,30.07,29.98,29.86,10,9,0,22,12,30,1.10,6,Fog-Rain-Thunderstorm,204
2013-12-23,53,42,28,54,39,28,100,100,100,30.26,30.17,30.02,10,7,0,13,8,20,0.11,8,Fog-Rain,305
2013-12-24,28,22,17,28,21,12,100,85,59,30.38,30.31,30.22,10,8,0,12,5,17,0.00,5,Snow,301
2013-12-25,37,24,12,23,17,9,93,69,48,30.34,30.29,30.21,10,10,10,15,4,20,0.00,0,,213
2013-12-26,39,34,28,28,23,18,86,67,48,30.33,30.27,30.20,10,10,10,15,8,25,0.00,2,,263
2013-12-27,46,36,26,23,19,10,74,52,34,30.41,30.35,30.31,10,10,10,8,3,,0.00,0,,218
2013-12-28,48,39,30,43,26,21,100,63,37,30.35,30.25,30.05,10,10,5,12,4,17,0.17,2,Rain,202
2013-12-29,44,40,35,45,41,36,100,100,100,30.02,29.88,29.79,10,8,2,15,7,21,1.08,7,Rain,226
2013-12-30,37,34,30,37,33,30,100,100,100,30.13,30.07,29.97,10,8,0,10,5,,0.03,8,Fog-Rain-Snow,281
2013-12-31,37,32,26,32,25,21,100,81,52,30.31,30.23,30.11,10,10,10,14,6,20,0.00,1,,243